createdAt,value
2023-03-08T00:01:15.624Z,44.39
2023-03-08T00:03:42.769Z,44.32
2023-03-08T00:06:12.341Z,44.29
2023-03-08T00:08:39.292Z,44.42
2023-03-08T00:11:07.562Z,44.56
2023-03-08T00:13:34.492Z,44.13
2023-03-08T00:16:03.924Z,44.31
2023-03-08T00:18:30.659Z,44.39
2023-03-08T00:21:00.974Z,44.33
2023-03-08T00:23:27.793Z,44.18
2023-03-08T00:25:54.849Z,44.48
2023-03-08T00:28:21.696Z,44.30
2023-03-08T00:30:59.489Z,44.68
2023-03-08T00:33:27.207Z,44.57
2023-03-08T00:35:59.871Z,44.65
2023-03-08T00:38:26.545Z,44.49
2023-03-08T00:40:53.435Z,44.73
2023-03-08T00:43:20.604Z,44.70
2023-03-08T00:45:48.764Z,44.45
2023-03-08T00:48:16.898Z,44.51
2023-03-08T00:50:44.603Z,44.69
2023-03-08T00:53:11.894Z,44.85
2023-03-08T00:55:52.335Z,44.79
2023-03-08T00:58:20.096Z,44.54
2023-03-08T01:00:47.266Z,44.52
2023-03-08T01:03:14.490Z,44.86
2023-03-08T01:05:42.712Z,44.49
2023-03-08T01:08:09.636Z,44.79
2023-03-08T01:10:36.349Z,44.92
2023-03-08T01:13:04.937Z,44.68
2023-03-08T01:15:35.865Z,44.59
2023-03-08T01:18:05.490Z,44.84
2023-03-08T01:20:32.287Z,44.40
2023-03-08T01:22:58.987Z,44.79
2023-03-08T01:25:25.697Z,44.56
2023-03-08T01:27:52.494Z,44.42
2023-03-08T01:30:19.287Z,44.66
2023-03-08T01:32:45.980Z,44.09
2023-03-08T01:35:12.615Z,44.37
2023-03-08T01:37:39.270Z,44.68
2023-03-08T01:40:06.904Z,44.62
2023-03-08T01:42:33.657Z,44.73
2023-03-08T01:45:05.532Z,44.62
2023-03-08T01:47:33.588Z,44.61
2023-03-08T01:50:12.175Z,44.65
2023-03-08T01:52:49.000Z,44.79
2023-03-08T01:55:16.673Z,44.67
2023-03-08T01:57:50.126Z,44.41
2023-03-08T02:00:24.370Z,44.82
2023-03-08T02:02:59.996Z,44.54
2023-03-08T02:05:28.335Z,44.66
2023-03-08T02:08:01.077Z,44.66
2023-03-08T02:10:32.397Z,44.54
2023-03-08T02:12:59.123Z,44.55
2023-03-08T02:15:25.796Z,44.99
2023-03-08T02:17:55.938Z,44.54
2023-03-08T02:20:30.768Z,45.02
2023-03-08T02:23:13.953Z,44.59
2023-03-08T02:25:42.890Z,45.09
2023-03-08T02:28:09.527Z,44.90
2023-03-08T02:30:37.777Z,44.81
2023-03-08T02:33:04.479Z,45.10
2023-03-08T02:35:32.127Z,44.87
2023-03-08T02:37:58.807Z,44.94
2023-03-08T02:40:25.630Z,45.29
2023-03-08T02:42:53.608Z,44.95
2023-03-08T02:45:20.379Z,45.32
2023-03-08T02:47:47.010Z,45.39
2023-03-08T02:50:13.853Z,45.55
2023-03-08T02:52:40.510Z,45.33
2023-03-08T02:55:08.079Z,45.22
2023-03-08T02:57:34.773Z,45.51
2023-03-08T03:00:04.077Z,45.40
2023-03-08T03:02:33.027Z,45.86
2023-03-08T03:04:59.645Z,45.86
2023-03-08T03:07:28.153Z,45.91
2023-03-08T03:09:55.360Z,45.51
2023-03-08T03:12:22.097Z,45.91
2023-03-08T03:14:49.000Z,46.22
2023-03-08T03:17:16.170Z,46.18
2023-03-08T03:19:43.027Z,45.99
2023-03-08T03:22:09.722Z,46.31
2023-03-08T03:24:37.613Z,46.21
2023-03-08T03:27:06.094Z,46.20
2023-03-08T03:29:37.568Z,46.23
2023-03-08T03:32:14.555Z,46.33
2023-03-08T03:34:41.430Z,46.60
2023-03-08T03:37:08.585Z,46.38
2023-03-08T03:39:39.880Z,46.67
2023-03-08T03:42:09.980Z,46.69
2023-03-08T03:44:41.114Z,46.72
2023-03-08T03:47:11.175Z,46.49
2023-03-08T03:49:37.910Z,46.60
2023-03-08T03:52:04.774Z,46.47
2023-03-08T03:54:38.336Z,46.55
2023-03-08T03:57:05.166Z,46.53
2023-03-08T03:59:36.079Z,46.57
2023-03-08T04:02:03.440Z,46.42
2023-03-08T04:04:38.622Z,46.78
2023-03-08T04:07:05.781Z,46.64
2023-03-08T04:09:37.985Z,46.40
2023-03-08T04:12:12.374Z,46.79
2023-03-08T04:14:40.473Z,46.42
2023-03-08T04:17:08.867Z,46.38
2023-03-08T04:19:50.361Z,46.67
2023-03-08T04:22:18.321Z,46.67
2023-03-08T04:24:50.928Z,46.65
2023-03-08T04:27:23.811Z,46.27
2023-03-08T04:29:50.634Z,46.36
2023-03-08T04:32:17.470Z,46.28
2023-03-08T04:34:48.715Z,46.54
2023-03-08T04:37:19.146Z,46.32
2023-03-08T04:39:49.625Z,46.57
2023-03-08T04:42:17.489Z,46.47
2023-03-08T04:44:45.444Z,46.52
2023-03-08T04:47:14.460Z,46.68
2023-03-08T04:49:45.649Z,46.28
2023-03-08T04:52:13.011Z,46.89
2023-03-08T04:54:41.123Z,46.59
2023-03-08T04:57:16.321Z,46.85
2023-03-08T04:59:44.008Z,46.92
2023-03-08T05:02:11.618Z,46.60
2023-03-08T05:04:38.808Z,46.64
2023-03-08T05:07:06.506Z,46.79
2023-03-08T05:09:35.746Z,46.77
2023-03-08T05:12:02.475Z,46.79
2023-03-08T05:14:49.688Z,47.05
2023-03-08T05:17:16.813Z,47.11
2023-03-08T05:19:44.693Z,47.36
2023-03-08T05:22:13.507Z,47.27
2023-03-08T05:24:46.416Z,47.50
2023-03-08T05:27:14.186Z,47.75
2023-03-08T05:29:41.304Z,47.65
2023-03-08T05:32:12.302Z,47.81
2023-03-08T05:34:40.106Z,48.20
2023-03-08T05:37:10.250Z,48.45
2023-03-08T05:39:38.762Z,48.79
2023-03-08T05:42:14.246Z,49.10
2023-03-08T05:44:43.630Z,49.10
2023-03-08T05:47:12.572Z,49.43
2023-03-08T05:49:39.805Z,49.65
2023-03-08T05:52:07.545Z,49.46
2023-03-08T05:54:35.308Z,49.79
2023-03-08T05:57:07.432Z,50.00
2023-03-08T05:59:35.336Z,50.47
2023-03-08T06:02:03.936Z,50.68
2023-03-08T06:04:52.369Z,50.69
2023-03-08T06:07:21.656Z,50.66
2023-03-08T06:09:55.426Z,51.18
2023-03-08T06:12:23.454Z,51.26
2023-03-08T06:14:54.277Z,51.13
2023-03-08T06:17:23.674Z,51.31
2023-03-08T06:19:51.632Z,51.58
2023-03-08T06:22:18.843Z,53.94
2023-03-08T06:24:49.627Z,54.57
2023-03-08T06:27:20.934Z,55.95
2023-03-08T06:29:50.917Z,56.66
2023-03-08T06:32:18.039Z,57.28
2023-03-08T06:34:47.079Z,58.12
2023-03-08T06:37:14.505Z,58.27
2023-03-08T06:39:41.172Z,58.72
2023-03-08T06:42:08.136Z,59.14
2023-03-08T06:44:35.472Z,59.55
2023-03-08T06:47:02.107Z,59.62
2023-03-08T06:49:28.714Z,59.97
2023-03-08T06:51:55.487Z,60.53
2023-03-08T06:54:24.216Z,60.91
2023-03-08T06:56:51.207Z,61.16
2023-03-08T06:59:17.856Z,61.46
2023-03-08T07:01:44.642Z,61.66
2023-03-08T07:04:11.409Z,62.24
2023-03-08T07:06:38.161Z,62.70
2023-03-08T07:09:04.762Z,62.62
2023-03-08T07:11:33.952Z,63.24
2023-03-08T07:14:00.575Z,63.72
2023-03-08T07:16:27.280Z,63.78
2023-03-08T07:18:53.888Z,63.74
2023-03-08T07:21:20.610Z,64.05
2023-03-08T07:23:47.206Z,64.27
2023-03-08T07:26:13.826Z,64.07
2023-03-08T07:28:40.724Z,63.83
2023-03-08T07:31:11.165Z,64.27
2023-03-08T07:33:37.947Z,63.93
2023-03-08T07:36:04.929Z,64.03
2023-03-08T07:38:31.657Z,64.39
2023-03-08T07:40:58.289Z,64.32
2023-03-08T07:43:25.245Z,64.37
2023-03-08T07:45:59.333Z,64.27
2023-03-08T07:48:26.090Z,64.77
2023-03-08T07:50:52.734Z,64.93
2023-03-08T07:53:19.452Z,65.20
2023-03-08T07:55:46.136Z,65.41
2023-03-08T07:58:13.034Z,65.50
2023-03-08T08:00:39.697Z,65.99
2023-03-08T08:03:06.384Z,66.44
2023-03-08T08:05:35.520Z,65.95
2023-03-08T08:08:02.385Z,66.17
2023-03-08T08:10:29.568Z,65.82
2023-03-08T08:12:56.206Z,65.51
2023-03-08T08:15:25.257Z,65.79
2023-03-08T08:17:52.703Z,65.97
2023-03-08T08:20:19.304Z,66.43
2023-03-08T08:22:46.018Z,66.58
2023-03-08T08:25:12.686Z,66.95
2023-03-08T08:27:39.557Z,66.58
2023-03-08T08:30:07.028Z,66.35
2023-03-08T08:32:35.375Z,66.33
2023-03-08T08:35:02.247Z,66.55
2023-03-08T08:37:30.709Z,66.00
2023-03-08T08:39:57.642Z,66.24
2023-03-08T08:42:24.554Z,65.58
2023-03-08T08:44:53.136Z,65.71
2023-03-08T08:47:19.922Z,65.78
2023-03-08T08:49:46.504Z,65.82
2023-03-08T08:52:13.142Z,65.86
2023-03-08T08:54:40.141Z,66.17
2023-03-08T08:57:07.252Z,65.86
2023-03-08T08:59:34.146Z,65.57
2023-03-08T09:02:00.864Z,65.88
2023-03-08T09:04:27.440Z,65.91
2023-03-08T09:06:54.307Z,66.00
2023-03-08T09:09:21.029Z,65.43
2023-03-08T09:11:54.787Z,65.72
2023-03-08T09:14:22.599Z,65.81
2023-03-08T09:16:49.384Z,65.61
2023-03-08T09:19:16.247Z,65.74
2023-03-08T09:21:42.941Z,65.51
2023-03-08T09:24:11.417Z,64.88
2023-03-08T09:26:38.206Z,64.56
2023-03-08T09:29:05.689Z,64.90
2023-03-08T09:31:36.977Z,64.14
2023-03-08T09:34:09.485Z,64.06
2023-03-08T09:36:37.323Z,64.04
2023-03-08T09:39:04.129Z,64.22
2023-03-08T09:41:52.976Z,64.32
2023-03-08T09:44:35.077Z,64.72
2023-03-08T09:47:16.372Z,64.25
2023-03-08T09:49:45.513Z,64.82
2023-03-08T09:52:35.375Z,64.38
2023-03-08T09:55:03.376Z,64.18
2023-03-08T09:57:47.021Z,63.79
2023-03-08T10:00:23.602Z,62.97
2023-03-08T10:03:15.339Z,63.96
2023-03-08T10:05:42.023Z,63.17
2023-03-08T10:08:14.459Z,62.58
2023-03-08T10:10:47.147Z,62.35
2023-03-08T10:13:24.819Z,62.84
2023-03-08T10:15:53.016Z,62.85
2023-03-08T10:18:26.717Z,63.18
2023-03-08T10:20:53.396Z,62.71
2023-03-08T10:23:20.704Z,63.17
2023-03-08T10:25:47.843Z,63.05
2023-03-08T10:28:18.961Z,62.16
2023-03-08T10:30:48.519Z,62.45
2023-03-08T10:33:15.623Z,62.56
2023-03-08T10:35:45.047Z,62.64
2023-03-08T10:38:17.621Z,62.57
2023-03-08T10:40:44.264Z,63.13
2023-03-08T10:43:17.042Z,63.71
2023-03-08T10:45:43.637Z,63.96
2023-03-08T10:48:17.161Z,64.28
2023-03-08T10:50:43.809Z,64.33
2023-03-08T10:53:11.481Z,64.41
2023-03-08T10:55:47.222Z,63.95
2023-03-08T10:58:26.099Z,64.02
2023-03-08T11:00:53.154Z,64.91
2023-03-08T11:03:20.347Z,65.17
2023-03-08T11:05:54.396Z,64.84
2023-03-08T11:08:25.493Z,65.17
2023-03-08T11:11:01.875Z,65.25
2023-03-08T11:13:32.904Z,65.42
2023-03-08T11:16:03.110Z,64.53
2023-03-08T11:18:41.991Z,65.01
2023-03-08T11:21:43.991Z,65.49
2023-03-08T11:24:22.505Z,65.12
2023-03-08T11:27:01.808Z,65.06
2023-03-08T11:29:40.663Z,65.12
2023-03-08T11:32:16.265Z,64.95
2023-03-08T11:34:43.040Z,64.66
2023-03-08T11:37:21.865Z,64.88
2023-03-08T11:39:53.808Z,64.94
2023-03-08T11:42:41.543Z,65.70
2023-03-08T11:45:08.293Z,65.27
2023-03-08T11:48:12.325Z,65.59
2023-03-08T11:50:41.382Z,66.00
2023-03-08T11:53:26.509Z,65.69
2023-03-08T11:55:59.010Z,65.59
2023-03-08T11:58:33.535Z,65.39
2023-03-08T12:01:01.300Z,66.09
2023-03-08T12:03:33.494Z,65.46
2023-03-08T12:06:01.841Z,65.35
2023-03-08T12:08:35.354Z,64.86
2023-03-08T12:11:03.394Z,65.67
2023-03-08T12:13:34.059Z,64.88
2023-03-08T12:16:17.714Z,65.01
2023-03-08T12:19:03.098Z,63.39
2023-03-08T12:21:43.578Z,63.42
2023-03-08T12:24:16.368Z,63.22
2023-03-08T12:27:05.980Z,62.42
2023-03-08T12:29:39.799Z,62.47
2023-03-08T12:32:06.555Z,62.53
2023-03-08T12:34:37.417Z,61.93
2023-03-08T12:37:04.126Z,62.01
2023-03-08T12:39:31.741Z,62.48
2023-03-08T12:41:59.461Z,62.79
2023-03-08T12:44:26.747Z,63.08
2023-03-08T12:47:02.910Z,62.99
2023-03-08T12:49:32.220Z,63.57
2023-03-08T12:52:01.828Z,63.52
2023-03-08T12:54:29.428Z,63.50
2023-03-08T12:56:55.913Z,64.44
2023-03-08T12:59:22.435Z,64.20
2023-03-08T13:01:57.966Z,63.18
2023-03-08T13:04:50.822Z,63.35
2023-03-08T13:07:17.397Z,62.76
2023-03-08T13:09:46.917Z,61.72
2023-03-08T13:12:18.970Z,61.98
2023-03-08T13:14:46.609Z,61.44
2023-03-08T13:17:25.270Z,61.84
2023-03-08T13:19:51.935Z,61.80
2023-03-08T13:22:20.684Z,61.60
2023-03-08T13:24:48.583Z,60.93
2023-03-08T13:27:27.521Z,61.67
2023-03-08T13:29:55.141Z,61.39
2023-03-08T13:32:21.964Z,62.25
2023-03-08T13:34:58.451Z,63.18
2023-03-08T13:37:26.024Z,63.26
2023-03-08T13:39:56.111Z,63.51
2023-03-08T13:42:24.935Z,63.30
2023-03-08T13:44:52.397Z,63.88
2023-03-08T13:47:18.931Z,63.69
2023-03-08T13:49:46.096Z,64.07
2023-03-08T13:52:32.909Z,63.63
2023-03-08T13:55:01.772Z,63.85
2023-03-08T13:57:29.262Z,64.23
2023-03-08T13:59:56.922Z,63.50
2023-03-08T14:02:27.498Z,63.60
2023-03-08T14:04:54.222Z,62.60
2023-03-08T14:07:28.398Z,62.35
2023-03-08T14:09:55.174Z,61.51
2023-03-08T14:12:22.565Z,61.83
2023-03-08T14:15:07.495Z,62.47
2023-03-08T14:17:34.631Z,62.42
2023-03-08T14:20:02.179Z,62.52
2023-03-08T14:22:39.093Z,62.33
2023-03-08T14:25:07.260Z,62.98
2023-03-08T14:27:45.184Z,63.77
2023-03-08T14:30:19.625Z,63.86
2023-03-08T14:33:00.271Z,64.40
2023-03-08T14:35:27.749Z,63.76
2023-03-08T14:37:58.495Z,63.82
2023-03-08T14:40:32.312Z,64.22
2023-03-08T14:43:04.572Z,64.27
2023-03-08T14:45:31.391Z,64.27
2023-03-08T14:47:58.682Z,64.45
2023-03-08T14:50:30.795Z,64.04
2023-03-08T14:52:58.064Z,64.12
2023-03-08T14:55:26.750Z,63.79
2023-03-08T14:57:56.432Z,63.82
2023-03-08T15:00:24.758Z,64.09
2023-03-08T15:02:51.278Z,63.81
2023-03-08T15:05:28.367Z,64.24
2023-03-08T15:07:55.945Z,64.98
2023-03-08T15:10:37.229Z,65.13
2023-03-08T15:13:04.580Z,65.76
2023-03-08T15:15:31.108Z,65.87
2023-03-08T15:17:57.721Z,65.77
2023-03-08T15:20:25.145Z,65.67
2023-03-08T15:22:52.963Z,66.20
2023-03-08T15:25:24.011Z,66.33
2023-03-08T15:27:50.640Z,66.23
2023-03-08T15:30:18.736Z,65.94
2023-03-08T15:32:45.412Z,66.32
2023-03-08T15:35:12.340Z,66.79
2023-03-08T15:37:39.238Z,67.59
2023-03-08T15:40:09.481Z,67.59
2023-03-08T15:42:36.116Z,68.22
2023-03-08T15:45:02.548Z,68.48
2023-03-08T15:47:29.097Z,68.47
2023-03-08T15:49:55.599Z,68.23
2023-03-08T15:52:24.665Z,67.86
2023-03-08T15:54:52.720Z,67.87
2023-03-08T15:57:19.313Z,67.27
2023-03-08T15:59:45.883Z,66.29
2023-03-08T16:02:16.398Z,65.77
2023-03-08T16:04:45.752Z,65.63
2023-03-08T16:07:13.526Z,66.27
2023-03-08T16:09:40.312Z,66.38
2023-03-08T16:12:06.966Z,66.23
2023-03-08T16:14:33.927Z,67.09
2023-03-08T16:17:00.490Z,67.20
2023-03-08T16:19:30.652Z,67.84
2023-03-08T16:21:57.173Z,67.73
2023-03-08T16:24:23.688Z,67.07
2023-03-08T16:26:50.287Z,67.39
2023-03-08T16:29:16.966Z,67.01
2023-03-08T16:31:43.638Z,66.58
2023-03-08T16:34:10.721Z,66.20
2023-03-08T16:36:37.421Z,66.61
2023-03-08T16:39:05.597Z,66.44
2023-03-08T16:41:35.788Z,66.67
2023-03-08T16:44:02.325Z,67.05
2023-03-08T16:46:29.209Z,67.15
2023-03-08T16:48:56.108Z,66.57
2023-03-08T16:51:27.326Z,65.89
2023-03-08T16:53:54.091Z,66.36
2023-03-08T16:56:29.707Z,66.49
2023-03-08T16:58:57.692Z,67.14
2023-03-08T17:01:24.562Z,67.01
2023-03-08T17:03:51.453Z,67.40
2023-03-08T17:06:19.090Z,67.76
2023-03-08T17:08:45.947Z,67.41
2023-03-08T17:11:15.569Z,67.67
2023-03-08T17:13:42.235Z,67.67
2023-03-08T17:16:10.987Z,68.22
2023-03-08T17:18:37.496Z,68.58
2023-03-08T17:21:05.334Z,68.95
2023-03-08T17:23:31.870Z,69.02
2023-03-08T17:25:58.604Z,69.11
2023-03-08T17:28:25.123Z,69.32
2023-03-08T17:30:51.841Z,69.52
2023-03-08T17:33:18.542Z,69.29
2023-03-08T17:35:45.375Z,69.96
2023-03-08T17:38:12.239Z,70.13
2023-03-08T17:40:40.328Z,70.57
2023-03-08T17:43:07.006Z,70.45
2023-03-08T17:45:33.685Z,70.30
2023-03-08T17:48:02.721Z,69.99
2023-03-08T17:50:32.208Z,69.84
2023-03-08T17:52:58.889Z,69.34
2023-03-08T17:55:25.724Z,69.26
2023-03-08T17:57:52.538Z,69.65
2023-03-08T18:00:19.753Z,69.73
2023-03-08T18:02:46.574Z,69.72
2023-03-08T18:05:13.486Z,69.31
2023-03-08T18:07:41.886Z,69.15
2023-03-08T18:10:11.032Z,69.30
2023-03-08T18:12:37.725Z,68.80
2023-03-08T18:15:04.866Z,68.88
2023-03-08T18:17:34.136Z,68.65
2023-03-08T18:20:01.388Z,68.42
2023-03-08T18:22:28.024Z,68.42
2023-03-08T18:24:54.577Z,68.13
2023-03-08T18:27:21.288Z,68.26
2023-03-08T18:29:48.042Z,68.25
2023-03-08T18:32:14.749Z,68.09
2023-03-08T18:34:41.621Z,68.21
2023-03-08T18:37:08.325Z,67.86
2023-03-08T18:39:35.042Z,67.66
2023-03-08T18:42:02.272Z,67.67
2023-03-08T18:44:28.924Z,67.82
2023-03-08T18:46:55.709Z,67.65
2023-03-08T18:49:22.555Z,67.52
2023-03-08T18:51:49.438Z,67.49
2023-03-08T18:54:17.434Z,67.83
2023-03-08T18:56:44.675Z,67.77
2023-03-08T18:59:13.652Z,67.60
2023-03-08T19:01:40.792Z,67.37
2023-03-08T19:04:08.153Z,67.24
2023-03-08T19:06:36.112Z,67.33
2023-03-08T19:09:10.147Z,67.12
2023-03-08T19:11:36.998Z,67.30
2023-03-08T19:14:03.676Z,67.28
2023-03-08T19:16:32.546Z,66.94
2023-03-08T19:19:05.535Z,66.96
2023-03-08T19:21:38.286Z,67.07
2023-03-08T19:24:05.198Z,67.12
2023-03-08T19:26:37.351Z,66.88
2023-03-08T19:29:16.927Z,67.05
2023-03-08T19:31:46.337Z,66.86
2023-03-08T19:34:13.827Z,66.63
2023-03-08T19:36:41.835Z,66.48
2023-03-08T19:39:11.116Z,66.80
2023-03-08T19:41:37.882Z,66.46
2023-03-08T19:44:07.061Z,66.54
2023-03-08T19:46:35.309Z,66.67
2023-03-08T19:49:02.239Z,66.32
2023-03-08T19:51:28.867Z,66.36
2023-03-08T19:53:55.869Z,66.28
2023-03-08T19:56:24.454Z,66.39
2023-03-08T19:58:56.849Z,66.20
2023-03-08T20:01:24.075Z,66.53
2023-03-08T20:03:50.896Z,66.49
2023-03-08T20:06:47.544Z,66.13
2023-03-08T20:09:21.526Z,66.43
2023-03-08T20:11:57.460Z,66.03
2023-03-08T20:14:27.052Z,65.91
2023-03-08T20:16:54.150Z,65.96
2023-03-08T20:19:21.052Z,65.92
2023-03-08T20:21:48.369Z,66.10
2023-03-08T20:24:18.254Z,65.85
2023-03-08T20:26:45.528Z,65.79
2023-03-08T20:29:12.167Z,65.46
2023-03-08T20:31:38.928Z,65.37
2023-03-08T20:34:05.570Z,65.46
2023-03-08T20:36:32.360Z,65.75
2023-03-08T20:38:59.956Z,65.61
2023-03-08T20:41:27.911Z,65.50
2023-03-08T20:43:57.590Z,65.42
2023-03-08T20:46:27.529Z,65.40
2023-03-08T20:48:54.418Z,65.01
2023-03-08T20:51:22.231Z,64.98
2023-03-08T20:53:52.696Z,65.23
2023-03-08T20:56:21.449Z,65.07
2023-03-08T20:58:48.429Z,64.73
2023-03-08T21:01:33.361Z,64.79
2023-03-08T21:04:00.269Z,64.98
2023-03-08T21:06:30.739Z,64.53
2023-03-08T21:08:57.560Z,64.75
2023-03-08T21:11:24.199Z,64.37
2023-03-08T21:13:51.779Z,64.38
2023-03-08T21:16:20.762Z,64.70
2023-03-08T21:18:51.166Z,64.70
2023-03-08T21:21:30.147Z,64.44
2023-03-08T21:23:58.639Z,64.60
2023-03-08T21:26:26.659Z,64.75
2023-03-08T21:28:55.851Z,64.54
2023-03-08T21:31:23.550Z,64.83
2023-03-08T21:33:50.203Z,64.36
2023-03-08T21:36:17.288Z,64.83
2023-03-08T21:38:44.328Z,64.69
2023-03-08T21:41:22.014Z,64.31
2023-03-08T21:43:48.809Z,64.65
2023-03-08T21:46:16.004Z,64.75
2023-03-08T21:48:42.702Z,64.30
2023-03-08T21:51:10.462Z,64.49
2023-03-08T21:53:37.633Z,64.59
2023-03-08T21:56:08.914Z,64.29
2023-03-08T21:58:36.633Z,64.28
2023-03-08T22:01:03.877Z,64.56
2023-03-08T22:03:31.344Z,64.25
2023-03-08T22:05:58.261Z,64.32
2023-03-08T22:08:25.208Z,64.52
2023-03-08T22:10:52.867Z,64.40
2023-03-08T22:13:19.797Z,64.28
2023-03-08T22:15:46.546Z,64.62
2023-03-08T22:18:13.252Z,64.51
2023-03-08T22:20:39.891Z,64.63
2023-03-08T22:23:06.553Z,64.31
2023-03-08T22:25:33.312Z,64.37
2023-03-08T22:28:00.318Z,64.66
2023-03-08T22:30:27.044Z,64.58
2023-03-08T22:32:54.468Z,64.65
2023-03-08T22:35:22.176Z,64.82
2023-03-08T22:37:49.378Z,64.90
2023-03-08T22:40:18.374Z,64.96
2023-03-08T22:42:46.172Z,64.63
2023-03-08T22:45:13.582Z,65.07
2023-03-08T22:47:40.331Z,65.14
2023-03-08T22:50:07.328Z,65.09
2023-03-08T22:52:34.029Z,64.85
2023-03-08T22:55:00.795Z,65.20
2023-03-08T22:57:27.455Z,65.17
2023-03-08T22:59:58.394Z,65.35
2023-03-08T23:02:25.501Z,65.12
2023-03-08T23:04:52.105Z,65.39
2023-03-08T23:07:18.868Z,65.35
2023-03-08T23:09:45.507Z,65.18
2023-03-08T23:12:12.228Z,65.63
2023-03-08T23:14:38.874Z,65.62
2023-03-08T23:17:05.765Z,65.22
2023-03-08T23:19:32.330Z,65.45
2023-03-08T23:21:59.048Z,65.36
